Cimarron Hills, Colorado
Current Conditions -  °F | °C
As of 6:54 PM on Thursday 18 Dec 2014 (Local Time) from KCOS Reporting Station
Overcast Overcast  
Wind Chill: 25°   Ceiling: 5500
Heat Index: 32°   Visibility: 10mi
Dew Point: 23°   Wind: 8mph
Humidity: 69%   Direction: 140°SE
Pressure: 30.08"   Gusts: NA
Location:  38.86°N, 104.69°W
Report Text: KCOS 190154Z 14007KT 10SM SCT032 BKN055 OVC075 00/M05 A3008 RMK AO2 SLP225 T00001050
Loading
Personal Weather Stations






























Interactive Weather Map New forecast layout! Learn more

10-Day Weather Forecast

Advertisements
Track Severe Weather on mobile